Time;durP1;ratioP1;P1;durP2;ratioP2;P2;SDS_P1;SDS_P2;PMS_P1;PMS_P2;Temp;Humidity;BMP_temperature;BMP_pressure;BME280_temperature;BME280_humidity;BME280_pressure;Samples;Min_cycle;Max_cycle;Signal;HPM_P1;HPM_P2
2021/11/09 00:01:23;;;;;;;;;;;;;;;;;;5066341;28;19909;-57
2021/11/09 00:04:11;;;;;;;;;;;;;;;;;;5066387;28;19935;-57
2021/11/09 00:06:41;;;;;;;;;;;;;;;;;;5065400;28;19926;-57
2021/11/09 00:09:12;;;;;;;;;;;;;;;;;;5066041;28;20403;-57
2021/11/09 00:11:38;;;;;;;;;;;;;;;;;;5065856;28;20362;-57
2021/11/09 00:14:04;;;;;;;;;;;;;;;;;;5065927;28;20039;-57
2021/11/09 00:16:31;;;;;;;;;;;;;;;;;;5065611;28;19909;-57
2021/11/09 00:18:56;;;;;;;;;;;;;;;;;;5065738;28;19915;-57
2021/11/09 00:21:22;;;;;;;;;;;;;;;;;;5065373;28;20117;-57
2021/11/09 00:23:48;;;;;;;;;;;;;;;;;;5066071;28;19918;-58
2021/11/09 00:26:14;;;;;;;;;;;;;;;;;;5065127;28;19920;-57
2021/11/09 00:28:40;;;;;;;;;;;;;;;;;;5065681;28;19917;-58
2021/11/09 00:31:06;;;;;;;;;;;;;;;;;;5065470;28;19935;-57
2021/11/09 00:33:32;;;;;;;;;;;;;;;;;;5065573;28;19962;-57
2021/11/09 00:35:58;;;;;;;;;;;;;;;;;;5065412;28;19913;-57
2021/11/09 00:38:25;;;;;;;;;;;;;;;;;;5065190;28;19959;-57
2021/11/09 00:40:51;;;;;;;;;;;;;;;;;;5066226;28;19912;-57
2021/11/09 00:43:17;;;;;;;;;;;;;;;;;;5065203;28;20476;-57
2021/11/09 00:45:43;;;;;;;;;;;;;;;;;;5065285;28;19917;-57
2021/11/09 00:48:10;;;;;;;;;;;;;;;;;;5065394;28;19913;-58
2021/11/09 00:50:37;;;;;;;;;;;;;;;;;;5065375;28;19947;-57
2021/11/09 00:53:03;;;;;;;;;;;;;;;;;;5065216;28;19922;-58
2021/11/09 00:55:29;;;;;;;;;;;;;;;;;;5065275;28;20412;-58
2021/11/09 00:57:55;;;;;;;;;;;;;;;;;;5065202;28;19977;-58
2021/11/09 01:00:20;;;;;;;;;;;;;;;;;;5065106;28;19908;-58
2021/11/09 01:02:46;;;;;;;;;;;;;;;;;;5065104;28;19955;-57
2021/11/09 01:05:12;;;;;;;;;;;;;;;;;;5064952;28;19908;-58
2021/11/09 01:07:38;;;;;;;;;;;;;;;;;;5064672;28;20363;-58
2021/11/09 01:10:04;;;;;;;;;;;;;;;;;;5065403;28;19923;-57
2021/11/09 01:12:31;;;;;;;;;;;;;;;;;;5064486;28;19920;-57
2021/11/09 01:14:58;;;;;;;;;;;;;;;;;;5064993;28;19913;-57
2021/11/09 01:17:24;;;;;;;;;;;;;;;;;;5064746;28;19917;-57
2021/11/09 01:19:50;;;;;;;;;;;;;;;;;;5065163;28;19919;-57
2021/11/09 01:22:16;;;;;;;;;;;;;;;;;;5064568;28;19909;-57
2021/11/09 01:24:43;;;;;;;;;;;;;;;;;;5065035;28;19931;-58
2021/11/09 01:27:09;;;;;;;;;;;;;;;;;;5065279;28;19912;-57
2021/11/09 01:29:35;;;;;;;;;;;;;;;;;;5064664;28;19942;-57
2021/11/09 01:32:02;;;;;;;;;;;;;;;;;;5064952;28;20346;-57
2021/11/09 01:34:28;;;;;;;;;;;;;;;;;;5064196;28;19986;-57
2021/11/09 01:36:55;;;;;;;;;;;;;;;;;;5064802;28;19951;-57
2021/11/09 01:39:22;;;;;;;;;;;;;;;;;;5065135;28;19954;-57
2021/11/09 01:41:47;;;;;;;;;;;;;;;;;;5065203;28;20457;-57
2021/11/09 01:44:14;;;;;;;;;;;;;;;;;;5064378;28;19952;-57
2021/11/09 01:46:40;;;;;;;;;;;;;;;;;;5063567;28;20026;-57
2021/11/09 01:49:06;;;;;;;;;;;;;;;;;;5064553;28;19908;-57
2021/11/09 01:51:32;;;;;;;;;;;;;;;;;;5064543;28;20019;-57
2021/11/09 01:53:59;;;;;;;;;;;;;;;;;;5064572;28;19912;-57
2021/11/09 01:56:26;;;;;;;;;;;;;;;;;;5064503;28;20162;-58
2021/11/09 01:58:52;;;;;;;;;;;;;;;;;;5065200;28;20341;-57
2021/11/09 02:01:18;;;;;;;;;;;;;;;;;;5064730;28;19905;-57
2021/11/09 02:03:44;;;;;;;;;;;;;;;;;;5064360;28;19916;-57
2021/11/09 02:06:10;;;;;;;;;;;;;;;;;;5064536;28;20342;-57
2021/11/09 02:08:36;;;;;;;;;;;;;;;;;;5064593;28;19944;-57
2021/11/09 02:11:02;;;;;;;;;;;;;;;;;;5064487;28;20412;-57
2021/11/09 02:13:28;;;;;;;;;;;;;;;;;;5064066;28;19955;-57
2021/11/09 02:15:54;;;;;;;;;;;;;;;;;;5064735;28;19955;-57
2021/11/09 02:18:20;;;;;;;;;;;;;;;;;;5064684;28;20307;-57
2021/11/09 02:20:47;;;;;;;;;;;;;;;;;;5067683;28;20067;-57
2021/11/09 02:23:13;;;;;;;;;;;;;;;;;;5067869;28;20425;-57
2021/11/09 02:25:41;;;;;;;;;;;;;;;;;;5068063;28;19912;-57
2021/11/09 02:28:07;;;;;;;;;;;;;;;;;;5067856;28;20407;-58
2021/11/09 02:30:33;;;;;;;;;;;;;;;;;;5067805;28;19912;-57
2021/11/09 02:32:59;;;;;;;;;;;;;;;;;;5067647;28;19912;-57
2021/11/09 02:35:25;;;;;;;;;;;;;;;;;;5067953;28;19917;-57
2021/11/09 02:37:51;;;;;;;;;;;;;;;;;;5068526;28;20449;-57
2021/11/09 02:40:17;;;;;;;;;;;;;;;;;;5067684;28;19909;-57
2021/11/09 02:42:43;;;;;;;;;;;;;;;;;;5067655;28;20501;-57
2021/11/09 02:45:26;;;;;;;;;;;;;;;;;;5068117;28;20283;-57
2021/11/09 02:47:55;;;;;;;;;;;;;;;;;;5068273;28;20312;-57
2021/11/09 02:50:24;;;;;;;;;;;;;;;;;;5067994;28;20331;-57
2021/11/09 02:52:56;;;;;;;;;;;;;;;;;;5068034;28;19920;-57
2021/11/09 02:55:30;;;;;;;;;;;;;;;;;;5067849;28;19954;-57
2021/11/09 03:01:04;;;;;;;;;;;;;;;;;;5066823;28;19961;-57
2021/11/09 03:06:19;;;;;;;;;;;;;;;;;;5067352;28;20294;-57
2021/11/09 03:09:04;;;;;;;;;;;;;;;;;;5067338;28;19948;-57
2021/11/09 03:11:31;;;;;;;;;;;;;;;;;;5066551;28;20011;-57
2021/11/09 03:13:58;;;;;;;;;;;;;;;;;;5066993;28;19982;-57
2021/11/09 03:16:24;;;;;;;;;;;;;;;;;;5066824;28;19917;-57
2021/11/09 03:18:56;;;;;;;;;;;;;;;;;;5065781;28;19917;-58
2021/11/09 03:40:36;;;;;;;;;;;;;;;;;;5066153;28;20003;-57
2021/11/09 03:45:47;;;;;;;;;;;;;;;;;;5066949;28;20374;-57
2021/11/09 03:48:16;;;;;;;;;;;;;;;;;;5066183;28;19913;-58
2021/11/09 03:50:42;;;;;;;;;;;;;;;;;;5066313;28;20323;-57
2021/11/09 03:53:12;;;;;;;;;;;;;;;;;;5066454;28;19913;-57
2021/11/09 03:55:57;;;;;;;;;;;;;;;;;;5066346;28;19908;-57
2021/11/09 04:00:57;;;;;;;;;;;;;;;;;;5066757;28;19944;-57
2021/11/09 04:08:45;;;;;;;;;;;;;;;;;;5066084;28;20390;-57
2021/11/09 04:11:49;;;;;;;;;;;;;;;;;;5066290;28;19967;-57
2021/11/09 04:17:03;;;;;;;;;;;;;;;;;;5064923;28;19912;-57
2021/11/09 05:09:24;;;;;;;;;;;;;;;;;;5065449;28;19947;-57
2021/11/09 05:11:50;;;;;;;;;;;;;;;;;;5065734;28;19994;-57
2021/11/09 05:14:16;;;;;;;;;;;;;;;;;;5064680;28;19960;-57
2021/11/09 05:16:42;;;;;;;;;;;;;;;;;;5065157;28;19909;-57
2021/11/09 05:19:08;;;;;;;;;;;;;;;;;;5065079;28;20383;-57
2021/11/09 05:21:34;;;;;;;;;;;;;;;;;;5064200;28;19960;-57
2021/11/09 05:24:00;;;;;;;;;;;;;;;;;;5064889;28;19908;-57
2021/11/09 05:26:26;;;;;;;;;;;;;;;;;;5064567;28;19913;-57
2021/11/09 05:28:52;;;;;;;;;;;;;;;;;;5065678;28;19991;-57
2021/11/09 05:31:19;;;;;;;;;;;;;;;;;;5064808;28;20000;-57
2021/11/09 05:33:45;;;;;;;;;;;;;;;;;;5064781;28;19923;-57
2021/11/09 05:36:11;;;;;;;;;;;;;;;;;;5064614;28;19908;-56
2021/11/09 05:38:57;;;;;;;;;;;;;;;;;;5064560;28;19934;-56
2021/11/09 05:41:24;;;;;;;;;;;;;;;;;;5062648;28;19942;-57
2021/11/09 05:43:51;;;;;;;;;;;;;;;;;;5065039;28;20227;-57
2021/11/09 05:46:18;;;;;;;;;;;;;;;;;;5063339;28;19966;-57
2021/11/09 05:48:44;;;;;;;;;;;;;;;;;;5065346;28;19939;-57
2021/11/09 05:51:09;;;;;;;;;;;;;;;;;;5064473;28;20295;-57
2021/11/09 05:53:35;;;;;;;;;;;;;;;;;;5064261;28;20244;-57
2021/11/09 05:56:01;;;;;;;;;;;;;;;;;;5068704;28;20027;-57
2021/11/09 05:58:27;;;;;;;;;;;;;;;;;;5067902;28;19995;-57
2021/11/09 06:00:53;;;;;;;;;;;;;;;;;;5068321;28;19908;-57
2021/11/09 06:03:23;;;;;;;;;;;;;;;;;;5067883;28;19916;-57
2021/11/09 06:05:48;;;;;;;;;;;;;;;;;;5068307;28;19950;-57
2021/11/09 06:08:14;;;;;;;;;;;;;;;;;;5068405;28;19981;-57
2021/11/09 06:10:40;;;;;;;;;;;;;;;;;;5068166;28;19919;-57
2021/11/09 06:13:06;;;;;;;;;;;;;;;;;;5068020;28;19921;-57
2021/11/09 06:15:32;;;;;;;;;;;;;;;;;;5067826;28;19912;-57
2021/11/09 06:17:58;;;;;;;;;;;;;;;;;;5067970;28;19908;-57
2021/11/09 06:20:24;;;;;;;;;;;;;;;;;;5067435;28;19951;-57
2021/11/09 06:22:50;;;;;;;;;;;;;;;;;;5067841;28;19965;-57
2021/11/09 06:25:15;;;;;;;;;;;;;;;;;;5068275;28;19967;-57
2021/11/09 06:27:41;;;;;;;;;;;;;;;;;;5068419;28;19958;-57
2021/11/09 06:30:08;;;;;;;;;;;;;;;;;;5068019;28;19912;-57
2021/11/09 06:32:34;;;;;;;;;;;;;;;;;;5067288;28;19917;-57
2021/11/09 06:35:00;;;;;;;;;;;;;;;;;;5067662;28;19913;-57
2021/11/09 06:37:30;;;;;;;;;;;;;;;;;;5067198;28;20484;-57
2021/11/09 06:39:56;;;;;;;;;;;;;;;;;;5068031;28;19909;-56
2021/11/09 06:42:22;;;;;;;;;;;;;;;;;;5067521;28;19909;-56
2021/11/09 06:44:48;;;;;;;;;;;;;;;;;;5067599;28;20003;-57
2021/11/09 06:47:13;;;;;;;;;;;;;;;;;;5067647;28;20031;-56
2021/11/09 06:49:39;;;;;;;;;;;;;;;;;;5067420;28;19913;-57
2021/11/09 06:52:06;;;;;;;;;;;;;;;;;;5057527;28;19916;-57
2021/11/09 06:54:32;;;;;;;;;;;;;;;;;;5066457;28;19912;-57
2021/11/09 06:56:58;;;;;;;;;;;;;;;;;;5062942;28;19935;-57
2021/11/09 06:59:24;;;;;;;;;;;;;;;;;;5047327;28;20403;-57
2021/11/09 07:01:50;;;;;;;;;;;;;;;;;;5048334;28;19931;-57
2021/11/09 07:04:16;;;;;;;;;;;;;;;;;;5049360;28;19913;-57
2021/11/09 07:06:42;;;;;;;;;;;;;;;;;;5059617;28;19916;-57
2021/11/09 07:09:08;;;;;;;;;;;;;;;;;;5053259;28;20019;-57
2021/11/09 07:11:35;;;;;;;;;;;;;;;;;;5048220;28;19921;-57
2021/11/09 07:14:01;;;;;;;;;;;;;;;;;;5048205;28;19916;-57
2021/11/09 07:16:27;;;;;;;;;;;;;;;;;;5048215;28;19916;-57
2021/11/09 07:19:01;;;;;;;;;;;;;;;;;;5047814;28;20454;-57
2021/11/09 07:21:27;;;;;;;;;;;;;;;;;;5047830;28;19909;-57
2021/11/09 07:23:53;;;;;;;;;;;;;;;;;;5048335;28;20583;-57
2021/11/09 07:26:19;;;;;;;;;;;;;;;;;;5049668;28;19913;-57
2021/11/09 07:28:46;;;;;;;;;;;;;;;;;;5049201;28;19976;-57
2021/11/09 07:31:15;;;;;;;;;;;;;;;;;;5049015;28;19913;-57
2021/11/09 07:33:41;;;;;;;;;;;;;;;;;;5062083;28;19917;-57
2021/11/09 07:36:07;;;;;;;;;;;;;;;;;;5067229;28;19938;-57
2021/11/09 07:38:33;;;;;;;;;;;;;;;;;;5047918;28;20031;-57
2021/11/09 07:40:59;;;;;;;;;;;;;;;;;;5063264;28;20400;-56
2021/11/09 07:43:25;;;;;;;;;;;;;;;;;;5068668;28;20316;-57
2021/11/09 07:45:51;;;;;;;;;;;;;;;;;;5050543;28;19954;-57
2021/11/09 07:48:17;;;;;;;;;;;;;;;;;;5064391;28;20365;-57
2021/11/09 07:50:43;;;;;;;;;;;;;;;;;;5067865;28;19912;-57
2021/11/09 07:53:14;;;;;;;;;;;;;;;;;;5055691;28;19920;-57
2021/11/09 07:55:46;;;;;;;;;;;;;;;;;;5065305;28;19915;-57
2021/11/09 07:58:17;;;;;;;;;;;;;;;;;;5066751;28;19916;-57
2021/11/09 08:00:47;;;;;;;;;;;;;;;;;;5068342;28;19951;-57
2021/11/09 08:03:20;;;;;;;;;;;;;;;;;;5058561;28;20013;-57
2021/11/09 08:08:18;;;;;;;;;;;;;;;;;;5063358;28;19966;-57
2021/11/09 08:10:44;;;;;;;;;;;;;;;;;;5060178;28;19919;-56
2021/11/09 08:13:10;;;;;;;;;;;;;;;;;;5063526;28;19913;-57
2021/11/09 08:15:36;;;;;;;;;;;;;;;;;;5047780;28;19915;-57
2021/11/09 08:18:02;;;;;;;;;;;;;;;;;;5048744;28;19919;-57
2021/11/09 08:20:28;;;;;;;;;;;;;;;;;;5046765;28;19952;-57
2021/11/09 08:22:54;;;;;;;;;;;;;;;;;;5046941;28;20009;-57
2021/11/09 08:25:20;;;;;;;;;;;;;;;;;;5046244;28;19920;-57
2021/11/09 08:27:46;;;;;;;;;;;;;;;;;;5044985;28;19909;-57
2021/11/09 08:30:12;;;;;;;;;;;;;;;;;;5046115;28;19952;-57
2021/11/09 08:32:38;;;;;;;;;;;;;;;;;;5046317;28;19964;-57
2021/11/09 08:35:04;;;;;;;;;;;;;;;;;;5047371;28;19939;-57
2021/11/09 08:37:31;;;;;;;;;;;;;;;;;;5046279;28;19908;-57
2021/11/09 08:39:57;;;;;;;;;;;;;;;;;;5046849;28;19913;-56
2021/11/09 08:45:22;;;;;;;;;;;;;;;;;;5045313;28;20011;-57
2021/11/09 08:47:43;;;;;;;;;;;;;;;;;;5057942;28;20314;-57
2021/11/09 08:50:12;;;;;;;;;;;;;;;;;;5050008;28;19912;-57
2021/11/09 08:52:39;;;;;;;;;;;;;;;;;;5057260;28;19927;-57
2021/11/09 08:55:21;;;;;;;;;;;;;;;;;;5059909;28;19963;-57
2021/11/09 09:05:27;;;;;;;;;;;;;;;;;;5047936;28;20038;-57
2021/11/09 09:07:54;;;;;;;;;;;;;;;;;;5055477;28;19917;-57
2021/11/09 09:10:19;;;;;;;;;;;;;;;;;;5060593;28;19963;-57
2021/11/09 09:12:45;;;;;;;;;;;;;;;;;;5066282;28;20198;-57
2021/11/09 09:15:11;;;;;;;;;;;;;;;;;;5064747;28;20002;-57
2021/11/09 09:17:37;;;;;;;;;;;;;;;;;;5064738;28;20518;-57
2021/11/09 09:20:39;;;;;;;;;;;;;;;;;;5065890;28;20340;-57
2021/11/09 09:28:20;;;;;;;;;;;;;;;;;;5065627;28;19936;-57
2021/11/09 09:52:54;;;;;;;;;;;;;;;;;;5068927;28;20322;-57
2021/11/09 09:55:35;;;;;;;;;;;;;;;;;;5068181;28;20424;-57
2021/11/09 09:58:01;;;;;;;;;;;;;;;;;;5049397;28;19915;-57
2021/11/09 10:00:28;;;;;;;;;;;;;;;;;;5049472;28;20023;-57
2021/11/09 10:02:54;;;;;;;;;;;;;;;;;;5050562;28;19920;-57
2021/11/09 10:05:21;;;;;;;;;;;;;;;;;;5047532;28;22218;-57
2021/11/09 10:07:49;;;;;;;;;;;;;;;;;;5049414;28;20306;-57
2021/11/09 10:10:15;;;;;;;;;;;;;;;;;;5049427;28;19908;-57
2021/11/09 10:12:41;;;;;;;;;;;;;;;;;;5049387;28;19924;-57
2021/11/09 10:15:07;;;;;;;;;;;;;;;;;;5048907;28;19913;-57
2021/11/09 10:17:33;;;;;;;;;;;;;;;;;;5053844;28;19961;-57
2021/11/09 10:19:59;;;;;;;;;;;;;;;;;;5049344;28;19920;-57
2021/11/09 10:22:26;;;;;;;;;;;;;;;;;;5048658;28;20311;-57
2021/11/09 10:24:52;;;;;;;;;;;;;;;;;;5048494;28;20035;-57
2021/11/09 10:27:18;;;;;;;;;;;;;;;;;;5048345;28;20003;-57
2021/11/09 10:29:44;;;;;;;;;;;;;;;;;;5048682;28;19927;-57
2021/11/09 10:32:10;;;;;;;;;;;;;;;;;;5064826;28;20325;-57
2021/11/09 10:34:36;;;;;;;;;;;;;;;;;;5053994;28;19913;-57
2021/11/09 10:37:01;;;;;;;;;;;;;;;;;;5048511;28;19909;-57
2021/11/09 10:39:28;;;;;;;;;;;;;;;;;;5048394;28;19909;-57
2021/11/09 10:41:54;;;;;;;;;;;;;;;;;;5050518;28;21096;-57
2021/11/09 10:44:20;;;;;;;;;;;;;;;;;;5067684;28;19927;-57
2021/11/09 10:46:45;;;;;;;;;;;;;;;;;;5062754;28;19909;-57
2021/11/09 10:49:11;;;;;;;;;;;;;;;;;;5048580;28;20334;-58
2021/11/09 10:51:37;;;;;;;;;;;;;;;;;;5060091;28;19974;-57
2021/11/09 10:54:06;;;;;;;;;;;;;;;;;;5068414;28;19912;-57
2021/11/09 11:04:27;;;;;;;;;;;;;;;;;;5066133;28;19978;-57
2021/11/09 11:06:53;;;;;;;;;;;;;;;;;;5066731;28;19923;-57
2021/11/09 11:09:19;;;;;;;;;;;;;;;;;;5050369;28;19923;-57
2021/11/09 11:11:45;;;;;;;;;;;;;;;;;;5046673;28;20011;-57
2021/11/09 11:14:12;;;;;;;;;;;;;;;;;;5046895;28;19909;-57
2021/11/09 11:16:38;;;;;;;;;;;;;;;;;;5046777;28;19913;-57
2021/11/09 11:19:03;;;;;;;;;;;;;;;;;;5049944;28;19924;-57
2021/11/09 11:21:30;;;;;;;;;;;;;;;;;;5061007;28;20364;-57
2021/11/09 11:23:57;;;;;;;;;;;;;;;;;;5051931;28;20364;-57
2021/11/09 11:26:24;;;;;;;;;;;;;;;;;;5045834;28;19915;-57
2021/11/09 11:28:51;;;;;;;;;;;;;;;;;;5046654;28;19917;-57
2021/11/09 11:31:17;;;;;;;;;;;;;;;;;;5045222;28;19967;-57
2021/11/09 11:33:43;;;;;;;;;;;;;;;;;;5046204;28;20327;-57
2021/11/09 11:36:09;;;;;;;;;;;;;;;;;;5046618;28;19953;-56
2021/11/09 11:38:34;;;;;;;;;;;;;;;;;;5058646;28;19912;-56
2021/11/09 11:41:02;;;;;;;;;;;;;;;;;;5067223;28;19920;-57
2021/11/09 11:43:28;;;;;;;;;;;;;;;;;;5063296;28;19916;-57
2021/11/09 11:45:54;;;;;;;;;;;;;;;;;;5066397;28;19966;-57
2021/11/09 11:48:20;;;;;;;;;;;;;;;;;;5066279;28;19912;-57
2021/11/09 11:50:47;;;;;;;;;;;;;;;;;;5053840;28;20011;-56
2021/11/09 11:53:13;;;;;;;;;;;;;;;;;;5045016;28;20352;-56
2021/11/09 11:55:39;;;;;;;;;;;;;;;;;;5048287;28;20295;-56
2021/11/09 11:58:05;;;;;;;;;;;;;;;;;;5066115;28;19912;-56
2021/11/09 12:00:32;;;;;;;;;;;;;;;;;;5065681;28;19912;-56
2021/11/09 12:02:59;;;;;;;;;;;;;;;;;;5066531;28;19913;-56
2021/11/09 12:05:25;;;;;;;;;;;;;;;;;;5064087;28;19958;-57
2021/11/09 12:07:52;;;;;;;;;;;;;;;;;;5048320;28;19916;-57
2021/11/09 12:10:18;;;;;;;;;;;;;;;;;;5046900;28;20400;-57
2021/11/09 12:12:44;;;;;;;;;;;;;;;;;;5046334;28;19924;-57
2021/11/09 12:15:10;;;;;;;;;;;;;;;;;;5047491;28;19913;-56
2021/11/09 12:17:37;;;;;;;;;;;;;;;;;;5047313;28;19948;-57
2021/11/09 12:20:07;;;;;;;;;;;;;;;;;;5045544;28;19966;-57
2021/11/09 12:22:33;;;;;;;;;;;;;;;;;;5045672;28;19919;-57
2021/11/09 12:25:00;;;;;;;;;;;;;;;;;;5046227;28;20372;-57
2021/11/09 12:27:30;;;;;;;;;;;;;;;;;;5046676;28;19909;-57
2021/11/09 12:29:56;;;;;;;;;;;;;;;;;;5046264;28;19909;-57
2021/11/09 12:32:22;;;;;;;;;;;;;;;;;;5044668;28;20101;-57
2021/11/09 12:34:48;;;;;;;;;;;;;;;;;;5045798;28;19959;-57
2021/11/09 12:37:14;;;;;;;;;;;;;;;;;;5045112;28;20391;-56
2021/11/09 12:39:40;;;;;;;;;;;;;;;;;;5045787;28;19920;-57
2021/11/09 12:42:06;;;;;;;;;;;;;;;;;;5045295;28;19909;-57
2021/11/09 12:44:32;;;;;;;;;;;;;;;;;;5045051;28;20102;-56
2021/11/09 12:47:00;;;;;;;;;;;;;;;;;;5046102;28;19913;-57
2021/11/09 12:49:34;;;;;;;;;;;;;;;;;;5044905;28;19915;-57
2021/11/09 12:52:01;;;;;;;;;;;;;;;;;;5045930;28;20414;-57
2021/11/09 12:54:28;;;;;;;;;;;;;;;;;;5045465;28;20407;-57
2021/11/09 12:56:58;;;;;;;;;;;;;;;;;;5045349;28;20003;-57
2021/11/09 13:04:45;;;;;;;;;;;;;;;;;;5044253;28;20118;-57
2021/11/09 13:09:48;;;;;;;;;;;;;;;;;;5045090;28;19970;-57
2021/11/09 13:12:14;;;;;;;;;;;;;;;;;;5044009;28;19947;-57
2021/11/09 13:14:41;;;;;;;;;;;;;;;;;;5043523;28;20221;-57
2021/11/09 13:17:07;;;;;;;;;;;;;;;;;;5043921;28;19962;-57
2021/11/09 13:19:38;;;;;;;;;;;;;;;;;;5044055;28;19920;-57
2021/11/09 13:22:07;;;;;;;;;;;;;;;;;;5045172;28;19959;-57
2021/11/09 13:24:35;;;;;;;;;;;;;;;;;;5044502;28;19964;-57
2021/11/09 13:27:01;;;;;;;;;;;;;;;;;;5044846;28;20404;-57
2021/11/09 13:29:27;;;;;;;;;;;;;;;;;;5045127;28;19932;-57
2021/11/09 13:31:54;;;;;;;;;;;;;;;;;;5044995;28;19917;-57
2021/11/09 13:34:20;;;;;;;;;;;;;;;;;;5044359;28;19936;-57
2021/11/09 13:36:47;;;;;;;;;;;;;;;;;;5049723;28;19908;-57
2021/11/09 13:39:14;;;;;;;;;;;;;;;;;;5064780;28;19908;-57
2021/11/09 13:41:41;;;;;;;;;;;;;;;;;;5057858;28;19959;-57
2021/11/09 13:44:07;;;;;;;;;;;;;;;;;;5044837;28;19999;-57
2021/11/09 13:46:33;;;;;;;;;;;;;;;;;;5044614;28;19917;-57
2021/11/09 13:48:58;;;;;;;;;;;;;;;;;;5045220;28;20448;-57
2021/11/09 13:51:25;;;;;;;;;;;;;;;;;;5044080;28;19931;-57
2021/11/09 13:53:51;;;;;;;;;;;;;;;;;;5043379;28;19986;-57
2021/11/09 13:56:17;;;;;;;;;;;;;;;;;;5044162;28;20391;-57
2021/11/09 13:58:43;;;;;;;;;;;;;;;;;;5044597;28;19916;-57
2021/11/09 14:01:13;;;;;;;;;;;;;;;;;;5044515;28;19912;-57
2021/11/09 14:03:53;;;;;;;;;;;;;;;;;;5044354;28;19909;-57
2021/11/09 14:08:56;;;;;;;;;;;;;;;;;;5044872;28;19923;-57
2021/11/09 14:13:59;;;;;;;;;;;;;;;;;;5044266;28;20428;-57
2021/11/09 14:18:57;;;;;;;;;;;;;;;;;;5048679;28;19915;-57
2021/11/09 14:21:23;;;;;;;;;;;;;;;;;;5047211;28;19916;-57
2021/11/09 14:23:49;;;;;;;;;;;;;;;;;;5048020;28;19913;-57
2021/11/09 14:26:15;;;;;;;;;;;;;;;;;;5047586;28;19936;-57
2021/11/09 14:28:41;;;;;;;;;;;;;;;;;;5047750;28;19913;-57
2021/11/09 14:31:07;;;;;;;;;;;;;;;;;;5047948;28;20364;-57
2021/11/09 14:33:33;;;;;;;;;;;;;;;;;;5047245;28;19923;-57
2021/11/09 14:35:59;;;;;;;;;;;;;;;;;;5048104;28;19913;-57
2021/11/09 14:38:28;;;;;;;;;;;;;;;;;;5047430;28;20443;-57
2021/11/09 14:41:00;;;;;;;;;;;;;;;;;;5047618;28;20014;-57
2021/11/09 14:43:40;;;;;;;;;;;;;;;;;;5047193;28;20359;-57
2021/11/09 14:46:06;;;;;;;;;;;;;;;;;;5047835;28;19913;-57
2021/11/09 14:51:14;;;;;;;;;;;;;;;;;;5047607;28;20046;-57
2021/11/09 14:53:44;;;;;;;;;;;;;;;;;;5047148;28;19913;-57
2021/11/09 14:56:11;;;;;;;;;;;;;;;;;;5047299;28;19912;-57
2021/11/09 14:58:39;;;;;;;;;;;;;;;;;;5047167;28;19916;-57
2021/11/09 15:01:06;;;;;;;;;;;;;;;;;;5047152;28;19916;-57
2021/11/09 15:03:36;;;;;;;;;;;;;;;;;;5046866;28;20321;-57
2021/11/09 15:06:07;;;;;;;;;;;;;;;;;;5047422;28;19916;-57
2021/11/09 15:12:01;;;;;;;;;;;;;;;;;;5045290;28;19921;-57
2021/11/09 15:26:05;;;;;;;;;;;;;;;;;;5046453;28;19924;-57
2021/11/09 15:28:19;;;;;;;;;;;;;;;;;;5046153;28;19944;-57
2021/11/09 15:31:52;;;;;;;;;;;;;;;;;;5046796;28;20338;-57
2021/11/09 15:39:16;;;;;;;;;;;;;;;;;;5044508;28;19909;-57
2021/11/09 15:41:42;;;;;;;;;;;;;;;;;;5046238;28;19944;-57
2021/11/09 15:44:08;;;;;;;;;;;;;;;;;;5046430;28;19920;-57
2021/11/09 15:46:34;;;;;;;;;;;;;;;;;;5046016;28;19962;-57
2021/11/09 15:49:00;;;;;;;;;;;;;;;;;;5046972;28;19948;-57
2021/11/09 15:51:26;;;;;;;;;;;;;;;;;;5046141;28;19951;-58
2021/11/09 15:53:53;;;;;;;;;;;;;;;;;;5045975;28;19917;-57
2021/11/09 15:56:19;;;;;;;;;;;;;;;;;;5045924;28;20395;-57
2021/11/09 15:58:45;;;;;;;;;;;;;;;;;;5046637;28;19955;-57
2021/11/09 16:01:12;;;;;;;;;;;;;;;;;;5046214;28;19940;-57
2021/11/09 16:03:39;;;;;;;;;;;;;;;;;;5045821;28;19909;-57
2021/11/09 16:06:08;;;;;;;;;;;;;;;;;;5046104;28;19913;-57
2021/11/09 16:08:35;;;;;;;;;;;;;;;;;;5045903;28;19958;-57
2021/11/09 16:11:05;;;;;;;;;;;;;;;;;;5046415;28;19916;-57
2021/11/09 16:13:31;;;;;;;;;;;;;;;;;;5046086;28;19923;-57
2021/11/09 16:15:57;;;;;;;;;;;;;;;;;;5046289;28;19943;-57
2021/11/09 16:18:24;;;;;;;;;;;;;;;;;;5045943;28;20411;-57
2021/11/09 16:20:50;;;;;;;;;;;;;;;;;;5045569;28;19909;-57
2021/11/09 16:23:18;;;;;;;;;;;;;;;;;;5045409;28;19913;-57
2021/11/09 16:25:44;;;;;;;;;;;;;;;;;;5045813;28;19913;-57
2021/11/09 16:28:10;;;;;;;;;;;;;;;;;;5045725;28;19909;-57
2021/11/09 16:30:36;;;;;;;;;;;;;;;;;;5043869;28;19958;-57
2021/11/09 16:33:44;;;;;;;;;;;;;;;;;;5046438;28;20304;-57
2021/11/09 16:35:57;;;;;;;;;;;;;;;;;;5042477;28;20004;-57
2021/11/09 16:38:30;;;;;;;;;;;;;;;;;;5043194;28;19912;-57
2021/11/09 16:40:57;;;;;;;;;;;;;;;;;;5045539;28;19918;-57
2021/11/09 16:43:34;;;;;;;;;;;;;;;;;;5045199;28;19920;-57
2021/11/09 16:48:34;;;;;;;;;;;;;;;;;;5045970;28;19921;-57
2021/11/09 16:53:32;;;;;;;;;;;;;;;;;;5045239;28;19924;-57
2021/11/09 16:59:27;;;;;;;;;;;;;;;;;;5045257;28;20509;-57
2021/11/09 17:04:17;;;;;;;;;;;;;;;;;;5045233;28;20442;-57
2021/11/09 17:16:19;;;;;;;;;;;;;;;;;;5044654;28;19916;-57
2021/11/09 18:22:24;;;;;;;;;;;;;;;;;;5060655;28;19973;-57
2021/11/09 18:24:50;;;;;;;;;;;;;;;;;;5067836;28;19915;-57
2021/11/09 18:27:17;;;;;;;;;;;;;;;;;;5056653;28;20407;-57
2021/11/09 18:29:43;;;;;;;;;;;;;;;;;;5050887;28;19975;-57
2021/11/09 18:32:09;;;;;;;;;;;;;;;;;;5050359;28;19960;-57
2021/11/09 18:34:40;;;;;;;;;;;;;;;;;;5049320;28;19908;-57
2021/11/09 18:37:06;;;;;;;;;;;;;;;;;;5056269;28;20003;-57
2021/11/09 18:39:32;;;;;;;;;;;;;;;;;;5053334;28;19962;-57
2021/11/09 18:41:58;;;;;;;;;;;;;;;;;;5060759;28;20680;-57
2021/11/09 18:44:24;;;;;;;;;;;;;;;;;;5060521;28;20039;-57
2021/11/09 18:46:50;;;;;;;;;;;;;;;;;;5049403;28;20011;-57
2021/11/09 18:49:17;;;;;;;;;;;;;;;;;;5048361;28;20000;-58
2021/11/09 18:51:43;;;;;;;;;;;;;;;;;;5048952;28;19991;-58
2021/11/09 18:54:09;;;;;;;;;;;;;;;;;;5047005;28;20043;-58
2021/11/09 18:56:35;;;;;;;;;;;;;;;;;;5066478;28;19919;-57
2021/11/09 18:59:01;;;;;;;;;;;;;;;;;;5068805;28;19909;-58
2021/11/09 19:01:27;;;;;;;;;;;;;;;;;;5064460;28;19913;-58
2021/11/09 19:03:53;;;;;;;;;;;;;;;;;;5051272;28;20563;-57
2021/11/09 19:06:19;;;;;;;;;;;;;;;;;;5068515;28;19916;-58
2021/11/09 19:08:45;;;;;;;;;;;;;;;;;;5056136;28;19909;-58
2021/11/09 19:11:11;;;;;;;;;;;;;;;;;;5051957;28;19971;-58
2021/11/09 19:13:37;;;;;;;;;;;;;;;;;;5061287;28;19917;-58
2021/11/09 19:16:04;;;;;;;;;;;;;;;;;;5068507;28;19974;-58
2021/11/09 19:18:30;;;;;;;;;;;;;;;;;;5067090;28;19913;-58
2021/11/09 19:20:56;;;;;;;;;;;;;;;;;;5049344;28;19917;-57
2021/11/09 19:23:23;;;;;;;;;;;;;;;;;;5055311;28;19924;-57
2021/11/09 19:25:49;;;;;;;;;;;;;;;;;;5053374;28;19935;-58
2021/11/09 19:28:15;;;;;;;;;;;;;;;;;;5051680;28;19908;-57
2021/11/09 19:30:41;;;;;;;;;;;;;;;;;;5050953;28;19984;-57
2021/11/09 19:33:07;;;;;;;;;;;;;;;;;;5065261;28;19978;-57
2021/11/09 19:35:34;;;;;;;;;;;;;;;;;;5066064;28;19962;-57
2021/11/09 19:38:00;;;;;;;;;;;;;;;;;;5061270;28;19952;-57
2021/11/09 19:40:25;;;;;;;;;;;;;;;;;;5060170;28;19997;-58
2021/11/09 19:42:57;;;;;;;;;;;;;;;;;;5063698;28;20355;-57
2021/11/09 19:45:29;;;;;;;;;;;;;;;;;;5060697;28;19931;-57
2021/11/09 19:47:58;;;;;;;;;;;;;;;;;;5055864;28;20451;-57
2021/11/09 19:50:23;;;;;;;;;;;;;;;;;;5054556;28;20390;-58
2021/11/09 19:52:54;;;;;;;;;;;;;;;;;;5065709;28;20019;-57
2021/11/09 19:55:19;;;;;;;;;;;;;;;;;;5053742;28;19912;-58
2021/11/09 19:57:46;;;;;;;;;;;;;;;;;;5056924;28;19942;-58
2021/11/09 20:00:12;;;;;;;;;;;;;;;;;;5051542;28;19913;-58
2021/11/09 20:02:42;;;;;;;;;;;;;;;;;;5050034;28;19909;-57
2021/11/09 20:05:10;;;;;;;;;;;;;;;;;;5047832;28;19919;-58
2021/11/09 20:07:37;;;;;;;;;;;;;;;;;;5058946;28;19909;-57
2021/11/09 20:10:04;;;;;;;;;;;;;;;;;;5057621;28;20358;-58
2021/11/09 20:12:32;;;;;;;;;;;;;;;;;;5051976;28;19994;-57
2021/11/09 20:15:04;;;;;;;;;;;;;;;;;;5066856;28;20011;-57
2021/11/09 20:17:30;;;;;;;;;;;;;;;;;;5062098;28;19916;-57
2021/11/09 20:19:57;;;;;;;;;;;;;;;;;;5060075;28;19917;-57
2021/11/09 20:22:24;;;;;;;;;;;;;;;;;;5063780;28;19944;-57
2021/11/09 20:24:51;;;;;;;;;;;;;;;;;;5055512;28;19981;-57
2021/11/09 20:27:18;;;;;;;;;;;;;;;;;;5058495;28;19916;-57
2021/11/09 20:29:44;;;;;;;;;;;;;;;;;;5050148;28;19921;-57
2021/11/09 20:32:10;;;;;;;;;;;;;;;;;;5052817;28;20392;-57
2021/11/09 20:34:36;;;;;;;;;;;;;;;;;;5060289;28;19938;-57
2021/11/09 20:37:02;;;;;;;;;;;;;;;;;;5057915;28;19916;-58
2021/11/09 20:39:29;;;;;;;;;;;;;;;;;;5050478;28;19927;-57
2021/11/09 20:41:55;;;;;;;;;;;;;;;;;;5054280;28;19913;-57
2021/11/09 20:44:22;;;;;;;;;;;;;;;;;;5053640;28;20280;-57
2021/11/09 20:46:48;;;;;;;;;;;;;;;;;;5066194;28;20306;-57
2021/11/09 20:49:14;;;;;;;;;;;;;;;;;;5060397;28;19916;-57
2021/11/09 20:51:40;;;;;;;;;;;;;;;;;;5050210;28;19917;-57
2021/11/09 20:54:06;;;;;;;;;;;;;;;;;;5050174;28;19920;-57
2021/11/09 20:56:32;;;;;;;;;;;;;;;;;;5051337;28;19920;-57
2021/11/09 20:58:58;;;;;;;;;;;;;;;;;;5058638;28;19912;-57
2021/11/09 21:01:24;;;;;;;;;;;;;;;;;;5057237;28;20028;-57
2021/11/09 21:03:50;;;;;;;;;;;;;;;;;;5057331;28;20011;-57
2021/11/09 21:06:16;;;;;;;;;;;;;;;;;;5052780;28;19921;-57